Impacts METAR Board INFO
IDs:

KRNH - New Richmond Muni, WI, US

Updated at: 0028 UTC 11 Dec 2017
Potential Impact None Slight Moderate High
Time10/12Z 10/13Z 10/14Z 10/15Z 10/16Z 10/17Z 10/18Z 10/19Z 10/20Z 10/21Z 10/22Z 10/23Z 11/00Z
VIS10 10 10 10 10 10 10 10 10 10 10 10 10
CIG28 26 24 24 22 18 18 20 90 90 23 23 --
CoverBKNOVCOVCOVCOVCOVCOVCOVCBKNOVCBKNOVCSCT
FltCatMVFRMVFRMVFRMVFRMVFRMVFRMVFRMVFRVFRVFRMVFRMVFRVFR
WX--------------------------
WDir034032032033032035033031031033000
WSpd0 5 6 7 6 6 7 10 6 6 4 0 0
WGst-- -- -- -- -- -- -- -- -- -- -- -- --
Raw hourly METARs
KRNH 101155Z AUTO 00000KT 10SM BKN028 M10/M11 A2986 RMK AO2 T10991112 11065 21108
KRNH 101255Z AUTO 34005KT 10SM OVC026 M07/M08 A2988 RMK AO2 T10701077
KRNH 101355Z AUTO 32006KT 10SM OVC024 M06/M08 A2990 RMK AO2 T10601079
KRNH 101455Z AUTO 32007KT 10SM OVC024 M05/M08 A2994 RMK AO2 T10541081
KRNH 101555Z AUTO 33006KT 10SM OVC022 M04/M07 A2995 RMK AO2 T10431073
KRNH 101655Z AUTO 32006KT 10SM OVC018 M04/M07 A2998 RMK AO2 T10361071
KRNH 101755Z AUTO 35007KT 10SM OVC018 M03/M07 A2998 RMK AO2 T10301070 11030 21097
KRNH 101855Z AUTO 33010KT 10SM OVC020 M02/M07 A3000 RMK AO2 T10251073
KRNH 101955Z AUTO 31006KT 10SM SCT020 BKN090 M02/M07 A2999 RMK AO2 T10211071
KRNH 102055Z AUTO 31006KT 10SM SCT022 OVC090 M02/M07 A3000 RMK AO2 T10181070
KRNH 102155Z AUTO 33004KT 10SM BKN023 M03/M07 A3002 RMK AO2 T10281073
KRNH 102255Z AUTO 00000KT 10SM OVC023 M03/M07 A3004 RMK AO2 T10351075
KRNH 102355Z AUTO 00000KT 10SM SCT023 M05/M08 A3004 RMK AO2 T10491077 11013 21050